sensor_id;sensor_type;location;lat;lon;timestamp;P1;durP1;ratioP1;P2;durP2;ratioP2
52534;SDS011;38443;53.164;5.802;2023-07-30T00:01:29;17.33;;;6.75;;
52534;SDS011;38443;53.164;5.802;2023-07-30T00:03:54;19.98;;;6.78;;
52534;SDS011;38443;53.164;5.802;2023-07-30T00:06:20;16.90;;;5.15;;
52534;SDS011;38443;53.164;5.802;2023-07-30T00:08:45;19.90;;;5.82;;
52534;SDS011;38443;53.164;5.802;2023-07-30T00:11:10;16.15;;;6.15;;
52534;SDS011;38443;53.164;5.802;2023-07-30T00:13:36;17.73;;;5.70;;
52534;SDS011;38443;53.164;5.802;2023-07-30T00:16:01;18.80;;;5.60;;
52534;SDS011;38443;53.164;5.802;2023-07-30T00:18:26;22.20;;;5.75;;
52534;SDS011;38443;53.164;5.802;2023-07-30T00:20:52;19.63;;;5.47;;
52534;SDS011;38443;53.164;5.802;2023-07-30T00:23:17;18.40;;;5.55;;
52534;SDS011;38443;53.164;5.802;2023-07-30T00:25:42;18.40;;;6.10;;
52534;SDS011;38443;53.164;5.802;2023-07-30T00:28:08;16.33;;;5.80;;
52534;SDS011;38443;53.164;5.802;2023-07-30T00:30:33;16.38;;;6.32;;
52534;SDS011;38443;53.164;5.802;2023-07-30T00:32:58;16.33;;;5.40;;
52534;SDS011;38443;53.164;5.802;2023-07-30T00:35:24;17.85;;;5.63;;
52534;SDS011;38443;53.164;5.802;2023-07-30T00:37:49;15.23;;;5.95;;
52534;SDS011;38443;53.164;5.802;2023-07-30T00:40:14;16.40;;;5.93;;
52534;SDS011;38443;53.164;5.802;2023-07-30T00:42:40;17.27;;;6.43;;
52534;SDS011;38443;53.164;5.802;2023-07-30T00:45:05;18.50;;;5.18;;
52534;SDS011;38443;53.164;5.802;2023-07-30T00:47:31;16.73;;;5.55;;
52534;SDS011;38443;53.164;5.802;2023-07-30T00:49:56;19.08;;;7.43;;
52534;SDS011;38443;53.164;5.802;2023-07-30T00:52:23;23.55;;;6.93;;
52534;SDS011;38443;53.164;5.802;2023-07-30T00:54:50;15.90;;;5.88;;
52534;SDS011;38443;53.164;5.802;2023-07-30T00:57:17;14.85;;;5.78;;
52534;SDS011;38443;53.164;5.802;2023-07-30T00:59:44;16.17;;;6.28;;
52534;SDS011;38443;53.164;5.802;2023-07-30T01:02:11;16.67;;;5.05;;
52534;SDS011;38443;53.164;5.802;2023-07-30T01:04:37;19.02;;;5.72;;
52534;SDS011;38443;53.164;5.802;2023-07-30T01:07:04;18.92;;;5.38;;
52534;SDS011;38443;53.164;5.802;2023-07-30T01:09:30;13.98;;;6.00;;
52534;SDS011;38443;53.164;5.802;2023-07-30T01:11:56;17.13;;;5.68;;
52534;SDS011;38443;53.164;5.802;2023-07-30T01:14:23;18.38;;;6.38;;
52534;SDS011;38443;53.164;5.802;2023-07-30T01:16:51;21.38;;;5.57;;
52534;SDS011;38443;53.164;5.802;2023-07-30T01:19:16;17.38;;;6.03;;
52534;SDS011;38443;53.164;5.802;2023-07-30T01:21:42;14.10;;;5.32;;
52534;SDS011;38443;53.164;5.802;2023-07-30T01:24:07;17.02;;;5.15;;
52534;SDS011;38443;53.164;5.802;2023-07-30T01:26:46;11.35;;;5.25;;
52534;SDS011;38443;53.164;5.802;2023-07-30T01:29:25;20.45;;;5.18;;
52534;SDS011;38443;53.164;5.802;2023-07-30T01:31:57;18.27;;;5.32;;
52534;SDS011;38443;53.164;5.802;2023-07-30T01:34:29;20.60;;;5.30;;
52534;SDS011;38443;53.164;5.802;2023-07-30T01:36:59;23.45;;;5.40;;
52534;SDS011;38443;53.164;5.802;2023-07-30T01:39:26;12.65;;;4.75;;
52534;SDS011;38443;53.164;5.802;2023-07-30T01:41:53;15.48;;;5.55;;
52534;SDS011;38443;53.164;5.802;2023-07-30T01:44:19;19.98;;;5.05;;
52534;SDS011;38443;53.164;5.802;2023-07-30T01:46:44;15.50;;;4.95;;
52534;SDS011;38443;53.164;5.802;2023-07-30T01:49:10;10.05;;;4.38;;
52534;SDS011;38443;53.164;5.802;2023-07-30T01:51:35;15.85;;;4.90;;
52534;SDS011;38443;53.164;5.802;2023-07-30T01:54:00;16.42;;;4.95;;
52534;SDS011;38443;53.164;5.802;2023-07-30T01:56:26;16.33;;;5.65;;
52534;SDS011;38443;53.164;5.802;2023-07-30T01:58:51;24.10;;;5.38;;
52534;SDS011;38443;53.164;5.802;2023-07-30T02:01:17;18.83;;;4.72;;
52534;SDS011;38443;53.164;5.802;2023-07-30T02:03:42;19.65;;;4.90;;
52534;SDS011;38443;53.164;5.802;2023-07-30T02:06:07;17.48;;;4.93;;
52534;SDS011;38443;53.164;5.802;2023-07-30T02:08:33;11.23;;;4.55;;
52534;SDS011;38443;53.164;5.802;2023-07-30T02:10:58;14.60;;;4.60;;
52534;SDS011;38443;53.164;5.802;2023-07-30T02:13:24;13.65;;;5.18;;
52534;SDS011;38443;53.164;5.802;2023-07-30T02:15:50;17.23;;;5.10;;
52534;SDS011;38443;53.164;5.802;2023-07-30T02:18:16;14.23;;;4.85;;
52534;SDS011;38443;53.164;5.802;2023-07-30T02:20:42;17.60;;;5.15;;
52534;SDS011;38443;53.164;5.802;2023-07-30T02:23:07;16.30;;;4.68;;
52534;SDS011;38443;53.164;5.802;2023-07-30T02:25:33;13.00;;;4.28;;
52534;SDS011;38443;53.164;5.802;2023-07-30T02:27:59;15.15;;;4.50;;
52534;SDS011;38443;53.164;5.802;2023-07-30T02:30:25;16.48;;;4.50;;
52534;SDS011;38443;53.164;5.802;2023-07-30T02:32:51;13.05;;;4.78;;
52534;SDS011;38443;53.164;5.802;2023-07-30T02:35:16;13.85;;;5.15;;
52534;SDS011;38443;53.164;5.802;2023-07-30T02:37:42;18.27;;;5.43;;
52534;SDS011;38443;53.164;5.802;2023-07-30T02:40:07;17.27;;;4.72;;
52534;SDS011;38443;53.164;5.802;2023-07-30T02:42:33;15.63;;;4.53;;
52534;SDS011;38443;53.164;5.802;2023-07-30T02:44:58;17.33;;;5.05;;
52534;SDS011;38443;53.164;5.802;2023-07-30T02:47:24;17.95;;;4.60;;
52534;SDS011;38443;53.164;5.802;2023-07-30T02:49:49;12.88;;;5.00;;
52534;SDS011;38443;53.164;5.802;2023-07-30T02:52:14;14.23;;;5.43;;
52534;SDS011;38443;53.164;5.802;2023-07-30T02:54:40;14.48;;;5.05;;
52534;SDS011;38443;53.164;5.802;2023-07-30T02:57:05;13.45;;;4.97;;
52534;SDS011;38443;53.164;5.802;2023-07-30T02:59:30;17.80;;;4.57;;
52534;SDS011;38443;53.164;5.802;2023-07-30T03:01:56;17.40;;;5.22;;
52534;SDS011;38443;53.164;5.802;2023-07-30T03:04:21;15.10;;;4.53;;
52534;SDS011;38443;53.164;5.802;2023-07-30T03:06:46;12.02;;;4.70;;
52534;SDS011;38443;53.164;5.802;2023-07-30T03:09:12;15.00;;;4.50;;
52534;SDS011;38443;53.164;5.802;2023-07-30T03:11:37;12.93;;;4.15;;
52534;SDS011;38443;53.164;5.802;2023-07-30T03:14:02;17.52;;;3.83;;
52534;SDS011;38443;53.164;5.802;2023-07-30T03:16:28;12.60;;;4.80;;
52534;SDS011;38443;53.164;5.802;2023-07-30T03:18:53;14.73;;;5.00;;
52534;SDS011;38443;53.164;5.802;2023-07-30T03:21:18;9.43;;;3.65;;
52534;SDS011;38443;53.164;5.802;2023-07-30T03:23:44;8.02;;;3.97;;
52534;SDS011;38443;53.164;5.802;2023-07-30T03:26:10;13.77;;;4.65;;
52534;SDS011;38443;53.164;5.802;2023-07-30T03:28:35;12.23;;;4.43;;
52534;SDS011;38443;53.164;5.802;2023-07-30T03:31:01;11.93;;;3.50;;
52534;SDS011;38443;53.164;5.802;2023-07-30T03:33:26;7.22;;;3.42;;
52534;SDS011;38443;53.164;5.802;2023-07-30T03:35:51;11.48;;;3.70;;
52534;SDS011;38443;53.164;5.802;2023-07-30T03:38:17;8.90;;;3.08;;
52534;SDS011;38443;53.164;5.802;2023-07-30T03:40:42;11.68;;;3.67;;
52534;SDS011;38443;53.164;5.802;2023-07-30T03:43:08;6.18;;;2.85;;
52534;SDS011;38443;53.164;5.802;2023-07-30T03:45:33;11.68;;;3.00;;
52534;SDS011;38443;53.164;5.802;2023-07-30T03:47:58;6.15;;;2.95;;
52534;SDS011;38443;53.164;5.802;2023-07-30T03:50:24;4.95;;;2.70;;
52534;SDS011;38443;53.164;5.802;2023-07-30T03:52:49;13.48;;;3.08;;
52534;SDS011;38443;53.164;5.802;2023-07-30T03:55:14;9.82;;;4.15;;
52534;SDS011;38443;53.164;5.802;2023-07-30T03:57:40;10.20;;;3.67;;
52534;SDS011;38443;53.164;5.802;2023-07-30T04:00:05;8.52;;;3.13;;
52534;SDS011;38443;53.164;5.802;2023-07-30T04:02:31;6.70;;;3.08;;
52534;SDS011;38443;53.164;5.802;2023-07-30T04:04:56;13.65;;;3.88;;
52534;SDS011;38443;53.164;5.802;2023-07-30T04:07:23;8.95;;;3.30;;
52534;SDS011;38443;53.164;5.802;2023-07-30T04:09:48;7.85;;;3.25;;
52534;SDS011;38443;53.164;5.802;2023-07-30T04:12:14;11.75;;;3.70;;
52534;SDS011;38443;53.164;5.802;2023-07-30T04:14:39;7.95;;;3.10;;
52534;SDS011;38443;53.164;5.802;2023-07-30T04:17:04;8.45;;;3.30;;
52534;SDS011;38443;53.164;5.802;2023-07-30T04:19:30;6.03;;;3.05;;
52534;SDS011;38443;53.164;5.802;2023-07-30T04:21:55;7.18;;;2.88;;
52534;SDS011;38443;53.164;5.802;2023-07-30T04:24:21;5.70;;;2.95;;
52534;SDS011;38443;53.164;5.802;2023-07-30T04:26:46;6.53;;;2.97;;
52534;SDS011;38443;53.164;5.802;2023-07-30T04:29:12;5.93;;;2.38;;
52534;SDS011;38443;53.164;5.802;2023-07-30T04:31:39;4.40;;;2.45;;
52534;SDS011;38443;53.164;5.802;2023-07-30T04:34:04;4.75;;;2.33;;
52534;SDS011;38443;53.164;5.802;2023-07-30T04:36:30;7.18;;;2.88;;
52534;SDS011;38443;53.164;5.802;2023-07-30T04:38:55;5.65;;;2.40;;
52534;SDS011;38443;53.164;5.802;2023-07-30T04:41:20;5.57;;;2.50;;
52534;SDS011;38443;53.164;5.802;2023-07-30T04:43:46;11.68;;;2.67;;
52534;SDS011;38443;53.164;5.802;2023-07-30T04:46:11;8.32;;;2.80;;
52534;SDS011;38443;53.164;5.802;2023-07-30T04:48:37;3.95;;;2.28;;
52534;SDS011;38443;53.164;5.802;2023-07-30T04:51:02;7.15;;;2.85;;
52534;SDS011;38443;53.164;5.802;2023-07-30T04:53:28;9.63;;;3.35;;
52534;SDS011;38443;53.164;5.802;2023-07-30T04:55:54;7.03;;;2.65;;
52534;SDS011;38443;53.164;5.802;2023-07-30T04:58:23;9.07;;;2.50;;
52534;SDS011;38443;53.164;5.802;2023-07-30T05:00:49;8.38;;;3.22;;
52534;SDS011;38443;53.164;5.802;2023-07-30T05:03:15;8.52;;;2.80;;
52534;SDS011;38443;53.164;5.802;2023-07-30T05:05:41;6.93;;;2.40;;
52534;SDS011;38443;53.164;5.802;2023-07-30T05:08:06;7.43;;;2.38;;
52534;SDS011;38443;53.164;5.802;2023-07-30T05:10:32;7.55;;;2.35;;
52534;SDS011;38443;53.164;5.802;2023-07-30T05:12:57;8.23;;;2.38;;
52534;SDS011;38443;53.164;5.802;2023-07-30T05:15:22;3.90;;;2.00;;
52534;SDS011;38443;53.164;5.802;2023-07-30T05:17:48;5.63;;;2.47;;
52534;SDS011;38443;53.164;5.802;2023-07-30T05:20:13;4.68;;;2.63;;
52534;SDS011;38443;53.164;5.802;2023-07-30T05:22:38;6.35;;;2.28;;
52534;SDS011;38443;53.164;5.802;2023-07-30T05:25:04;6.15;;;2.60;;
52534;SDS011;38443;53.164;5.802;2023-07-30T05:27:30;7.40;;;2.60;;
52534;SDS011;38443;53.164;5.802;2023-07-30T05:29:56;7.10;;;2.60;;
52534;SDS011;38443;53.164;5.802;2023-07-30T05:32:22;5.72;;;2.22;;
52534;SDS011;38443;53.164;5.802;2023-07-30T05:34:47;9.30;;;2.60;;
52534;SDS011;38443;53.164;5.802;2023-07-30T05:37:13;9.45;;;2.47;;
52534;SDS011;38443;53.164;5.802;2023-07-30T05:39:38;7.30;;;2.80;;
52534;SDS011;38443;53.164;5.802;2023-07-30T05:42:03;4.97;;;2.17;;
52534;SDS011;38443;53.164;5.802;2023-07-30T05:44:29;5.55;;;2.28;;
52534;SDS011;38443;53.164;5.802;2023-07-30T05:46:54;9.93;;;2.90;;
52534;SDS011;38443;53.164;5.802;2023-07-30T05:49:20;10.95;;;2.50;;
52534;SDS011;38443;53.164;5.802;2023-07-30T05:51:45;6.63;;;2.20;;
52534;SDS011;38443;53.164;5.802;2023-07-30T05:54:11;7.78;;;2.97;;
52534;SDS011;38443;53.164;5.802;2023-07-30T05:56:37;8.13;;;2.60;;
52534;SDS011;38443;53.164;5.802;2023-07-30T05:59:02;8.48;;;3.05;;
52534;SDS011;38443;53.164;5.802;2023-07-30T06:01:28;4.45;;;2.22;;
52534;SDS011;38443;53.164;5.802;2023-07-30T06:03:53;7.00;;;2.53;;
52534;SDS011;38443;53.164;5.802;2023-07-30T06:06:18;6.72;;;2.97;;
52534;SDS011;38443;53.164;5.802;2023-07-30T06:08:51;9.07;;;2.70;;
52534;SDS011;38443;53.164;5.802;2023-07-30T06:11:17;6.70;;;2.13;;
52534;SDS011;38443;53.164;5.802;2023-07-30T06:13:42;9.73;;;2.58;;
52534;SDS011;38443;53.164;5.802;2023-07-30T06:16:08;7.75;;;2.55;;
52534;SDS011;38443;53.164;5.802;2023-07-30T06:18:34;5.82;;;2.45;;
52534;SDS011;38443;53.164;5.802;2023-07-30T06:20:59;6.65;;;2.55;;
52534;SDS011;38443;53.164;5.802;2023-07-30T06:23:25;7.25;;;2.72;;
52534;SDS011;38443;53.164;5.802;2023-07-30T06:25:50;10.18;;;3.33;;
52534;SDS011;38443;53.164;5.802;2023-07-30T06:28:15;10.32;;;3.33;;
52534;SDS011;38443;53.164;5.802;2023-07-30T06:30:41;5.30;;;2.25;;
52534;SDS011;38443;53.164;5.802;2023-07-30T06:33:06;6.93;;;2.30;;
52534;SDS011;38443;53.164;5.802;2023-07-30T06:35:31;10.55;;;3.40;;
52534;SDS011;38443;53.164;5.802;2023-07-30T06:37:57;5.15;;;2.28;;
52534;SDS011;38443;53.164;5.802;2023-07-30T06:40:22;7.38;;;2.67;;
52534;SDS011;38443;53.164;5.802;2023-07-30T06:42:48;5.97;;;2.45;;
52534;SDS011;38443;53.164;5.802;2023-07-30T06:45:13;7.55;;;2.90;;
52534;SDS011;38443;53.164;5.802;2023-07-30T06:47:39;8.05;;;2.75;;
52534;SDS011;38443;53.164;5.802;2023-07-30T06:50:04;4.90;;;2.67;;
52534;SDS011;38443;53.164;5.802;2023-07-30T06:52:33;5.72;;;2.67;;
52534;SDS011;38443;53.164;5.802;2023-07-30T06:54:59;10.25;;;2.90;;
52534;SDS011;38443;53.164;5.802;2023-07-30T06:57:24;5.03;;;2.50;;
52534;SDS011;38443;53.164;5.802;2023-07-30T06:59:50;9.40;;;2.30;;
52534;SDS011;38443;53.164;5.802;2023-07-30T07:02:15;8.15;;;2.70;;
52534;SDS011;38443;53.164;5.802;2023-07-30T07:04:40;9.23;;;2.58;;
52534;SDS011;38443;53.164;5.802;2023-07-30T07:07:06;5.10;;;2.30;;
52534;SDS011;38443;53.164;5.802;2023-07-30T07:09:31;10.95;;;2.95;;
52534;SDS011;38443;53.164;5.802;2023-07-30T07:11:57;4.60;;;2.28;;
52534;SDS011;38443;53.164;5.802;2023-07-30T07:14:23;5.70;;;2.30;;
52534;SDS011;38443;53.164;5.802;2023-07-30T07:16:49;5.75;;;2.00;;
52534;SDS011;38443;53.164;5.802;2023-07-30T07:19:14;6.28;;;2.05;;
52534;SDS011;38443;53.164;5.802;2023-07-30T07:21:40;7.03;;;1.88;;
52534;SDS011;38443;53.164;5.802;2023-07-30T07:24:05;11.18;;;2.97;;
52534;SDS011;38443;53.164;5.802;2023-07-30T07:26:31;10.13;;;3.00;;
52534;SDS011;38443;53.164;5.802;2023-07-30T07:28:56;7.40;;;2.20;;
52534;SDS011;38443;53.164;5.802;2023-07-30T07:31:21;4.22;;;2.47;;
52534;SDS011;38443;53.164;5.802;2023-07-30T07:33:47;5.25;;;2.08;;
52534;SDS011;38443;53.164;5.802;2023-07-30T07:36:12;10.63;;;2.65;;
52534;SDS011;38443;53.164;5.802;2023-07-30T07:38:39;7.47;;;2.13;;
52534;SDS011;38443;53.164;5.802;2023-07-30T07:41:04;6.45;;;2.15;;
52534;SDS011;38443;53.164;5.802;2023-07-30T07:43:30;8.10;;;2.38;;
52534;SDS011;38443;53.164;5.802;2023-07-30T07:45:55;6.18;;;2.40;;
52534;SDS011;38443;53.164;5.802;2023-07-30T07:48:21;7.03;;;2.35;;
52534;SDS011;38443;53.164;5.802;2023-07-30T07:50:46;8.00;;;2.60;;
52534;SDS011;38443;53.164;5.802;2023-07-30T07:53:11;13.55;;;2.78;;
52534;SDS011;38443;53.164;5.802;2023-07-30T07:55:37;5.28;;;2.38;;
52534;SDS011;38443;53.164;5.802;2023-07-30T07:58:02;8.48;;;2.58;;
52534;SDS011;38443;53.164;5.802;2023-07-30T08:00:27;7.53;;;2.85;;
52534;SDS011;38443;53.164;5.802;2023-07-30T08:02:53;9.23;;;2.60;;
52534;SDS011;38443;53.164;5.802;2023-07-30T08:05:18;6.70;;;2.50;;
52534;SDS011;38443;53.164;5.802;2023-07-30T08:07:47;10.05;;;2.55;;
52534;SDS011;38443;53.164;5.802;2023-07-30T08:10:13;6.07;;;1.95;;
52534;SDS011;38443;53.164;5.802;2023-07-30T08:12:38;7.95;;;2.65;;
52534;SDS011;38443;53.164;5.802;2023-07-30T08:15:04;8.32;;;2.63;;
52534;SDS011;38443;53.164;5.802;2023-07-30T08:17:29;8.95;;;2.25;;
52534;SDS011;38443;53.164;5.802;2023-07-30T08:19:55;4.65;;;2.13;;
52534;SDS011;38443;53.164;5.802;2023-07-30T08:22:20;7.78;;;2.53;;
52534;SDS011;38443;53.164;5.802;2023-07-30T08:24:45;10.85;;;3.28;;
52534;SDS011;38443;53.164;5.802;2023-07-30T08:27:11;7.40;;;2.67;;
52534;SDS011;38443;53.164;5.802;2023-07-30T08:29:36;4.53;;;2.22;;
52534;SDS011;38443;53.164;5.802;2023-07-30T08:32:01;4.80;;;1.80;;
52534;SDS011;38443;53.164;5.802;2023-07-30T08:34:27;7.57;;;2.67;;
52534;SDS011;38443;53.164;5.802;2023-07-30T08:36:52;4.32;;;1.80;;
52534;SDS011;38443;53.164;5.802;2023-07-30T08:39:18;4.20;;;1.80;;
52534;SDS011;38443;53.164;5.802;2023-07-30T08:41:43;4.05;;;2.10;;
52534;SDS011;38443;53.164;5.802;2023-07-30T08:44:09;10.95;;;2.72;;
52534;SDS011;38443;53.164;5.802;2023-07-30T08:46:34;6.93;;;2.08;;
52534;SDS011;38443;53.164;5.802;2023-07-30T08:49:00;7.75;;;2.75;;
52534;SDS011;38443;53.164;5.802;2023-07-30T08:51:26;5.55;;;2.50;;
52534;SDS011;38443;53.164;5.802;2023-07-30T08:53:52;7.75;;;2.45;;
52534;SDS011;38443;53.164;5.802;2023-07-30T08:56:17;4.32;;;2.15;;
52534;SDS011;38443;53.164;5.802;2023-07-30T08:58:43;5.28;;;2.20;;
52534;SDS011;38443;53.164;5.802;2023-07-30T09:01:11;8.73;;;2.72;;
52534;SDS011;38443;53.164;5.802;2023-07-30T09:03:40;6.40;;;2.20;;
52534;SDS011;38443;53.164;5.802;2023-07-30T09:06:06;6.43;;;2.35;;
52534;SDS011;38443;53.164;5.802;2023-07-30T09:08:32;8.70;;;2.17;;
52534;SDS011;38443;53.164;5.802;2023-07-30T09:11:10;5.25;;;1.90;;
52534;SDS011;38443;53.164;5.802;2023-07-30T09:13:39;6.65;;;1.88;;
52534;SDS011;38443;53.164;5.802;2023-07-30T09:16:09;7.55;;;2.25;;
52534;SDS011;38443;53.164;5.802;2023-07-30T09:18:39;5.80;;;2.35;;
52534;SDS011;38443;53.164;5.802;2023-07-30T09:21:06;7.00;;;2.58;;
52534;SDS011;38443;53.164;5.802;2023-07-30T09:23:31;7.95;;;2.20;;
52534;SDS011;38443;53.164;5.802;2023-07-30T09:26:00;7.07;;;2.20;;
52534;SDS011;38443;53.164;5.802;2023-07-30T09:28:31;4.20;;;1.73;;
52534;SDS011;38443;53.164;5.802;2023-07-30T09:31:03;6.22;;;2.40;;
52534;SDS011;38443;53.164;5.802;2023-07-30T09:33:30;7.97;;;2.15;;
52534;SDS011;38443;53.164;5.802;2023-07-30T09:35:56;15.57;;;5.82;;
52534;SDS011;38443;53.164;5.802;2023-07-30T09:38:21;6.70;;;2.60;;
52534;SDS011;38443;53.164;5.802;2023-07-30T09:40:48;11.30;;;2.30;;
52534;SDS011;38443;53.164;5.802;2023-07-30T09:43:14;7.15;;;2.58;;
52534;SDS011;38443;53.164;5.802;2023-07-30T09:45:43;6.18;;;2.03;;
52534;SDS011;38443;53.164;5.802;2023-07-30T09:48:10;6.47;;;2.17;;
52534;SDS011;38443;53.164;5.802;2023-07-30T09:50:36;4.93;;;1.95;;
52534;SDS011;38443;53.164;5.802;2023-07-30T09:53:02;10.70;;;3.15;;
52534;SDS011;38443;53.164;5.802;2023-07-30T09:55:28;8.82;;;4.25;;
52534;SDS011;38443;53.164;5.802;2023-07-30T09:57:54;9.30;;;3.30;;
52534;SDS011;38443;53.164;5.802;2023-07-30T10:00:19;8.48;;;2.40;;
52534;SDS011;38443;53.164;5.802;2023-07-30T10:02:46;7.10;;;3.05;;
52534;SDS011;38443;53.164;5.802;2023-07-30T10:05:16;7.30;;;3.97;;
52534;SDS011;38443;53.164;5.802;2023-07-30T10:07:57;13.15;;;5.78;;
52534;SDS011;38443;53.164;5.802;2023-07-30T10:10:25;13.25;;;5.18;;
52534;SDS011;38443;53.164;5.802;2023-07-30T10:12:53;7.97;;;2.83;;
52534;SDS011;38443;53.164;5.802;2023-07-30T10:15:23;7.68;;;2.83;;
52534;SDS011;38443;53.164;5.802;2023-07-30T10:17:53;6.95;;;2.00;;
52534;SDS011;38443;53.164;5.802;2023-07-30T10:20:25;6.68;;;2.25;;
52534;SDS011;38443;53.164;5.802;2023-07-30T10:22:58;4.53;;;1.90;;
52534;SDS011;38443;53.164;5.802;2023-07-30T10:25:29;6.13;;;1.90;;
52534;SDS011;38443;53.164;5.802;2023-07-30T10:28:07;5.40;;;2.53;;
52534;SDS011;38443;53.164;5.802;2023-07-30T10:30:33;7.28;;;1.95;;
52534;SDS011;38443;53.164;5.802;2023-07-30T10:32:59;7.28;;;1.98;;
52534;SDS011;38443;53.164;5.802;2023-07-30T10:38:11;9.82;;;2.47;;
52534;SDS011;38443;53.164;5.802;2023-07-30T10:43:42;8.05;;;3.17;;
52534;SDS011;38443;53.164;5.802;2023-07-30T10:46:11;5.60;;;2.40;;
52534;SDS011;38443;53.164;5.802;2023-07-30T10:48:42;6.47;;;2.83;;
52534;SDS011;38443;53.164;5.802;2023-07-30T10:51:09;8.57;;;2.60;;
52534;SDS011;38443;53.164;5.802;2023-07-30T10:53:38;8.63;;;2.92;;
52534;SDS011;38443;53.164;5.802;2023-07-30T10:56:05;7.10;;;2.20;;
52534;SDS011;38443;53.164;5.802;2023-07-30T10:58:32;4.03;;;1.80;;
52534;SDS011;38443;53.164;5.802;2023-07-30T11:01:01;9.05;;;2.38;;
52534;SDS011;38443;53.164;5.802;2023-07-30T11:03:27;4.95;;;1.98;;
52534;SDS011;38443;53.164;5.802;2023-07-30T11:05:53;5.47;;;2.58;;
52534;SDS011;38443;53.164;5.802;2023-07-30T11:08:21;5.90;;;2.08;;
52534;SDS011;38443;53.164;5.802;2023-07-30T11:10:57;6.68;;;2.00;;
52534;SDS011;38443;53.164;5.802;2023-07-30T11:13:22;4.40;;;2.00;;
52534;SDS011;38443;53.164;5.802;2023-07-30T11:15:48;4.53;;;1.60;;
52534;SDS011;38443;53.164;5.802;2023-07-30T11:18:13;6.13;;;1.92;;
52534;SDS011;38443;53.164;5.802;2023-07-30T11:20:39;3.47;;;1.83;;
52534;SDS011;38443;53.164;5.802;2023-07-30T11:23:26;4.47;;;1.95;;
52534;SDS011;38443;53.164;5.802;2023-07-30T11:25:51;4.67;;;2.00;;
52534;SDS011;38443;53.164;5.802;2023-07-30T11:31:02;8.02;;;2.13;;
52534;SDS011;38443;53.164;5.802;2023-07-30T11:33:30;4.80;;;1.65;;
52534;SDS011;38443;53.164;5.802;2023-07-30T11:35:56;4.00;;;1.67;;
52534;SDS011;38443;53.164;5.802;2023-07-30T11:38:25;4.00;;;1.52;;
52534;SDS011;38443;53.164;5.802;2023-07-30T11:40:54;5.78;;;1.70;;
52534;SDS011;38443;53.164;5.802;2023-07-30T11:43:21;7.60;;;2.42;;
52534;SDS011;38443;53.164;5.802;2023-07-30T11:45:47;5.65;;;2.00;;
52534;SDS011;38443;53.164;5.802;2023-07-30T11:48:13;6.00;;;2.13;;
52534;SDS011;38443;53.164;5.802;2023-07-30T11:50:48;5.53;;;2.00;;
52534;SDS011;38443;53.164;5.802;2023-07-30T11:53:15;5.72;;;2.22;;
52534;SDS011;38443;53.164;5.802;2023-07-30T11:55:42;4.68;;;1.70;;
52534;SDS011;38443;53.164;5.802;2023-07-30T11:58:09;7.53;;;2.00;;
52534;SDS011;38443;53.164;5.802;2023-07-30T12:00:38;3.45;;;1.65;;
52534;SDS011;38443;53.164;5.802;2023-07-30T12:03:05;5.72;;;1.85;;
52534;SDS011;38443;53.164;5.802;2023-07-30T12:05:35;7.35;;;2.30;;
52534;SDS011;38443;53.164;5.802;2023-07-30T12:08:02;5.80;;;2.03;;
52534;SDS011;38443;53.164;5.802;2023-07-30T12:13:28;8.45;;;2.22;;
52534;SDS011;38443;53.164;5.802;2023-07-30T12:15:53;4.78;;;1.73;;
52534;SDS011;38443;53.164;5.802;2023-07-30T12:18:20;5.05;;;1.92;;
52534;SDS011;38443;53.164;5.802;2023-07-30T12:20:46;6.18;;;1.88;;
52534;SDS011;38443;53.164;5.802;2023-07-30T12:23:12;4.68;;;1.75;;
52534;SDS011;38443;53.164;5.802;2023-07-30T12:25:38;7.50;;;2.80;;
52534;SDS011;38443;53.164;5.802;2023-07-30T12:28:04;3.88;;;1.85;;
52534;SDS011;38443;53.164;5.802;2023-07-30T12:30:29;5.63;;;1.77;;
52534;SDS011;38443;53.164;5.802;2023-07-30T12:32:55;6.25;;;1.80;;
52534;SDS011;38443;53.164;5.802;2023-07-30T12:35:21;6.90;;;2.00;;
52534;SDS011;38443;53.164;5.802;2023-07-30T12:37:46;4.43;;;2.30;;
52534;SDS011;38443;53.164;5.802;2023-07-30T12:40:12;4.05;;;1.88;;
52534;SDS011;38443;53.164;5.802;2023-07-30T12:42:37;4.25;;;1.70;;
52534;SDS011;38443;53.164;5.802;2023-07-30T12:45:03;6.10;;;2.00;;
52534;SDS011;38443;53.164;5.802;2023-07-30T12:47:28;7.38;;;1.98;;
52534;SDS011;38443;53.164;5.802;2023-07-30T12:49:54;3.03;;;1.40;;
52534;SDS011;38443;53.164;5.802;2023-07-30T12:52:19;4.35;;;1.55;;
52534;SDS011;38443;53.164;5.802;2023-07-30T12:54:44;4.78;;;1.85;;
52534;SDS011;38443;53.164;5.802;2023-07-30T12:57:10;7.55;;;1.70;;
52534;SDS011;38443;53.164;5.802;2023-07-30T12:59:35;4.78;;;1.50;;
52534;SDS011;38443;53.164;5.802;2023-07-30T13:02:01;2.92;;;1.80;;
52534;SDS011;38443;53.164;5.802;2023-07-30T13:04:26;6.28;;;1.58;;
52534;SDS011;38443;53.164;5.802;2023-07-30T13:06:52;3.42;;;1.73;;
52534;SDS011;38443;53.164;5.802;2023-07-30T13:09:20;5.20;;;1.63;;
52534;SDS011;38443;53.164;5.802;2023-07-30T13:11:46;7.68;;;2.10;;
52534;SDS011;38443;53.164;5.802;2023-07-30T13:14:12;5.95;;;1.83;;
52534;SDS011;38443;53.164;5.802;2023-07-30T13:16:37;8.18;;;1.67;;
52534;SDS011;38443;53.164;5.802;2023-07-30T13:19:03;8.90;;;2.00;;
52534;SDS011;38443;53.164;5.802;2023-07-30T13:21:28;3.30;;;1.52;;
52534;SDS011;38443;53.164;5.802;2023-07-30T13:23:53;4.03;;;2.20;;
52534;SDS011;38443;53.164;5.802;2023-07-30T13:26:19;5.63;;;1.73;;
52534;SDS011;38443;53.164;5.802;2023-07-30T13:28:44;6.32;;;1.80;;
52534;SDS011;38443;53.164;5.802;2023-07-30T13:31:10;5.97;;;2.28;;
52534;SDS011;38443;53.164;5.802;2023-07-30T13:33:35;5.53;;;1.80;;
52534;SDS011;38443;53.164;5.802;2023-07-30T13:36:01;4.85;;;1.90;;
52534;SDS011;38443;53.164;5.802;2023-07-30T13:38:27;3.58;;;1.65;;
52534;SDS011;38443;53.164;5.802;2023-07-30T13:40:52;3.83;;;1.88;;
52534;SDS011;38443;53.164;5.802;2023-07-30T13:43:18;5.28;;;1.40;;
52534;SDS011;38443;53.164;5.802;2023-07-30T13:45:43;4.35;;;1.90;;
52534;SDS011;38443;53.164;5.802;2023-07-30T13:48:09;11.68;;;1.98;;
52534;SDS011;38443;53.164;5.802;2023-07-30T13:50:34;4.68;;;1.63;;
52534;SDS011;38443;53.164;5.802;2023-07-30T13:53:00;4.38;;;2.00;;
52534;SDS011;38443;53.164;5.802;2023-07-30T13:55:25;7.50;;;1.90;;
52534;SDS011;38443;53.164;5.802;2023-07-30T13:57:50;7.13;;;1.60;;
52534;SDS011;38443;53.164;5.802;2023-07-30T14:00:16;3.40;;;1.52;;
52534;SDS011;38443;53.164;5.802;2023-07-30T14:02:42;4.80;;;1.45;;
52534;SDS011;38443;53.164;5.802;2023-07-30T14:05:08;4.65;;;1.33;;
52534;SDS011;38443;53.164;5.802;2023-07-30T14:07:34;7.45;;;2.50;;
52534;SDS011;38443;53.164;5.802;2023-07-30T14:10:00;2.63;;;1.42;;
52534;SDS011;38443;53.164;5.802;2023-07-30T14:12:25;7.65;;;1.80;;
52534;SDS011;38443;53.164;5.802;2023-07-30T14:14:50;4.45;;;1.60;;
52534;SDS011;38443;53.164;5.802;2023-07-30T14:17:16;2.28;;;1.58;;
52534;SDS011;38443;53.164;5.802;2023-07-30T14:19:41;4.95;;;1.60;;
52534;SDS011;38443;53.164;5.802;2023-07-30T14:22:07;7.60;;;2.22;;
52534;SDS011;38443;53.164;5.802;2023-07-30T14:24:32;2.60;;;1.55;;
52534;SDS011;38443;53.164;5.802;2023-07-30T14:26:57;3.95;;;1.55;;
52534;SDS011;38443;53.164;5.802;2023-07-30T14:29:23;3.42;;;2.00;;
52534;SDS011;38443;53.164;5.802;2023-07-30T14:31:48;4.63;;;1.40;;
52534;SDS011;38443;53.164;5.802;2023-07-30T14:34:13;3.63;;;1.77;;
52534;SDS011;38443;53.164;5.802;2023-07-30T14:36:39;3.42;;;1.50;;
52534;SDS011;38443;53.164;5.802;2023-07-30T14:39:05;5.30;;;1.88;;
52534;SDS011;38443;53.164;5.802;2023-07-30T14:41:30;4.63;;;2.00;;
52534;SDS011;38443;53.164;5.802;2023-07-30T14:43:55;3.85;;;1.88;;
52534;SDS011;38443;53.164;5.802;2023-07-30T14:46:21;6.15;;;2.20;;
52534;SDS011;38443;53.164;5.802;2023-07-30T14:48:46;5.43;;;2.30;;